sensor_id;sensor_type;location;lat;lon;timestamp;pressure;altitude;pressure_sealevel;temperature;humidity
3434;BME280;1730;41.932;25.548;2023-03-04T00:00:07;99958.47;;;5.43;100.00
3434;BME280;1730;41.932;25.548;2023-03-04T00:02:33;100009.84;;;5.86;100.00
3434;BME280;1730;41.932;25.548;2023-03-04T00:04:59;99999.44;;;5.82;100.00
3434;BME280;1730;41.932;25.548;2023-03-04T00:07:24;99975.56;;;5.66;100.00
3434;BME280;1730;41.932;25.548;2023-03-04T00:09:50;99867.84;;;5.01;100.00
3434;BME280;1730;41.932;25.548;2023-03-04T00:12:15;99952.34;;;5.29;100.00
3434;BME280;1730;41.932;25.548;2023-03-04T00:14:41;99953.44;;;5.39;100.00
3434;BME280;1730;41.932;25.548;2023-03-04T00:17:06;99928.25;;;4.91;100.00
3434;BME280;1730;41.932;25.548;2023-03-04T00:19:32;99924.16;;;4.85;100.00
3434;BME280;1730;41.932;25.548;2023-03-04T00:21:59;99850.28;;;4.20;100.00
3434;BME280;1730;41.932;25.548;2023-03-04T00:24:24;99987.66;;;4.94;100.00
3434;BME280;1730;41.932;25.548;2023-03-04T00:26:50;100004.47;;;5.09;100.00
3434;BME280;1730;41.932;25.548;2023-03-04T00:29:15;99860.59;;;4.12;100.00
3434;BME280;1730;41.932;25.548;2023-03-04T00:31:41;100016.50;;;4.89;100.00
3434;BME280;1730;41.932;25.548;2023-03-04T00:34:06;100089.28;;;4.93;100.00
3434;BME280;1730;41.932;25.548;2023-03-04T00:36:32;99951.44;;;4.37;100.00
3434;BME280;1730;41.932;25.548;2023-03-04T00:38:57;100062.31;;;5.10;100.00
3434;BME280;1730;41.932;25.548;2023-03-04T00:41:22;100044.72;;;4.93;100.00
3434;BME280;1730;41.932;25.548;2023-03-04T00:43:48;100043.59;;;4.83;100.00
3434;BME280;1730;41.932;25.548;2023-03-04T00:46:14;100043.25;;;4.75;100.00
3434;BME280;1730;41.932;25.548;2023-03-04T00:48:39;100067.56;;;4.85;100.00
3434;BME280;1730;41.932;25.548;2023-03-04T00:51:05;100064.25;;;4.81;100.00
3434;BME280;1730;41.932;25.548;2023-03-04T00:53:30;100015.50;;;4.37;100.00
3434;BME280;1730;41.932;25.548;2023-03-04T00:55:56;100041.72;;;4.30;100.00
3434;BME280;1730;41.932;25.548;2023-03-04T00:58:22;99946.88;;;3.84;100.00
3434;BME280;1730;41.932;25.548;2023-03-04T01:00:47;99961.06;;;3.98;100.00
3434;BME280;1730;41.932;25.548;2023-03-04T01:03:13;100103.72;;;4.90;100.00
3434;BME280;1730;41.932;25.548;2023-03-04T01:05:39;100122.37;;;5.05;100.00
3434;BME280;1730;41.932;25.548;2023-03-04T01:08:04;100053.19;;;4.73;100.00
3434;BME280;1730;41.932;25.548;2023-03-04T01:10:30;100103.34;;;5.09;100.00
3434;BME280;1730;41.932;25.548;2023-03-04T01:12:57;100103.97;;;5.27;100.00
3434;BME280;1730;41.932;25.548;2023-03-04T01:15:22;100120.16;;;5.11;100.00
3434;BME280;1730;41.932;25.548;2023-03-04T01:17:48;100093.94;;;5.30;100.00
3434;BME280;1730;41.932;25.548;2023-03-04T01:20:14;100077.22;;;5.27;100.00
3434;BME280;1730;41.932;25.548;2023-03-04T01:22:40;100089.13;;;5.35;100.00
3434;BME280;1730;41.932;25.548;2023-03-04T01:25:06;100047.22;;;5.49;100.00
3434;BME280;1730;41.932;25.548;2023-03-04T01:27:32;100030.56;;;5.58;100.00
3434;BME280;1730;41.932;25.548;2023-03-04T01:29:57;99966.03;;;5.24;100.00
3434;BME280;1730;41.932;25.548;2023-03-04T01:32:23;100036.25;;;5.66;100.00
3434;BME280;1730;41.932;25.548;2023-03-04T01:34:48;99867.12;;;5.12;100.00
3434;BME280;1730;41.932;25.548;2023-03-04T01:37:15;99950.84;;;5.63;100.00
3434;BME280;1730;41.932;25.548;2023-03-04T01:39:41;99907.97;;;5.26;100.00
3434;BME280;1730;41.932;25.548;2023-03-04T01:42:14;99844.97;;;4.97;100.00
3434;BME280;1730;41.932;25.548;2023-03-04T01:44:42;99922.94;;;5.41;100.00
3434;BME280;1730;41.932;25.548;2023-03-04T01:47:08;99939.41;;;5.73;100.00
3434;BME280;1730;41.932;25.548;2023-03-04T01:49:34;99922.72;;;5.70;100.00
3434;BME280;1730;41.932;25.548;2023-03-04T01:51:59;99918.75;;;6.01;100.00
3434;BME280;1730;41.932;25.548;2023-03-04T01:54:25;99902.59;;;5.89;100.00
3434;BME280;1730;41.932;25.548;2023-03-04T01:56:51;99831.78;;;5.44;100.00
3434;BME280;1730;41.932;25.548;2023-03-04T01:59:25;99878.44;;;5.66;100.00
3434;BME280;1730;41.932;25.548;2023-03-04T02:01:56;99882.09;;;5.52;100.00
3434;BME280;1730;41.932;25.548;2023-03-04T02:04:26;99887.97;;;5.32;100.00
3434;BME280;1730;41.932;25.548;2023-03-04T02:06:53;99796.56;;;4.89;100.00
3434;BME280;1730;41.932;25.548;2023-03-04T02:09:20;99931.78;;;5.67;100.00
3434;BME280;1730;41.932;25.548;2023-03-04T02:11:47;99926.44;;;5.80;100.00
3434;BME280;1730;41.932;25.548;2023-03-04T02:14:14;99920.44;;;5.76;100.00
3434;BME280;1730;41.932;25.548;2023-03-04T02:16:39;99919.78;;;5.85;100.00
3434;BME280;1730;41.932;25.548;2023-03-04T02:19:41;99882.50;;;5.46;100.00
3434;BME280;1730;41.932;25.548;2023-03-04T02:22:09;99930.81;;;5.81;100.00
3434;BME280;1730;41.932;25.548;2023-03-04T02:24:39;99919.50;;;5.90;100.00
3434;BME280;1730;41.932;25.548;2023-03-04T02:27:06;99908.47;;;5.69;100.00
3434;BME280;1730;41.932;25.548;2023-03-04T02:29:31;99756.91;;;4.83;100.00
3434;BME280;1730;41.932;25.548;2023-03-04T02:31:57;99863.69;;;5.10;100.00
3434;BME280;1730;41.932;25.548;2023-03-04T02:34:26;99933.09;;;5.49;100.00
3434;BME280;1730;41.932;25.548;2023-03-04T02:36:54;99943.47;;;5.79;100.00
3434;BME280;1730;41.932;25.548;2023-03-04T02:41:48;99906.31;;;6.00;100.00
3434;BME280;1730;41.932;25.548;2023-03-04T02:44:23;99877.44;;;5.92;100.00
3434;BME280;1730;41.932;25.548;2023-03-04T02:46:50;99855.19;;;5.79;100.00
3434;BME280;1730;41.932;25.548;2023-03-04T02:49:16;99865.56;;;5.58;100.00
3434;BME280;1730;41.932;25.548;2023-03-04T02:51:42;99867.00;;;5.51;100.00
3434;BME280;1730;41.932;25.548;2023-03-04T02:54:18;99877.69;;;5.51;100.00
3434;BME280;1730;41.932;25.548;2023-03-04T02:56:52;99904.28;;;5.78;100.00
3434;BME280;1730;41.932;25.548;2023-03-04T02:59:18;99913.38;;;6.01;100.00
3434;BME280;1730;41.932;25.548;2023-03-04T03:01:44;99871.75;;;5.71;100.00
3434;BME280;1730;41.932;25.548;2023-03-04T03:04:11;99894.22;;;5.81;100.00
3434;BME280;1730;41.932;25.548;2023-03-04T03:06:37;99904.84;;;5.70;100.00
3434;BME280;1730;41.932;25.548;2023-03-04T03:09:03;99902.63;;;5.39;100.00
3434;BME280;1730;41.932;25.548;2023-03-04T03:11:28;99935.44;;;5.41;100.00
3434;BME280;1730;41.932;25.548;2023-03-04T03:13:54;99947.44;;;5.61;100.00
3434;BME280;1730;41.932;25.548;2023-03-04T03:16:20;99979.97;;;6.05;100.00
3434;BME280;1730;41.932;25.548;2023-03-04T03:18:45;99945.69;;;5.98;100.00
3434;BME280;1730;41.932;25.548;2023-03-04T03:21:11;99945.81;;;6.09;100.00
3434;BME280;1730;41.932;25.548;2023-03-04T03:23:36;99933.19;;;5.98;100.00
3434;BME280;1730;41.932;25.548;2023-03-04T03:26:03;99890.38;;;5.73;100.00
3434;BME280;1730;41.932;25.548;2023-03-04T03:28:29;99916.50;;;5.95;100.00
3434;BME280;1730;41.932;25.548;2023-03-04T03:30:55;99888.41;;;6.13;100.00
3434;BME280;1730;41.932;25.548;2023-03-04T03:33:22;99895.94;;;6.31;100.00
3434;BME280;1730;41.932;25.548;2023-03-04T03:35:48;99882.88;;;6.27;100.00
3434;BME280;1730;41.932;25.548;2023-03-04T03:38:13;99797.25;;;5.91;100.00
3434;BME280;1730;41.932;25.548;2023-03-04T03:40:39;99832.44;;;5.84;100.00
3434;BME280;1730;41.932;25.548;2023-03-04T03:43:04;99825.63;;;5.80;100.00
3434;BME280;1730;41.932;25.548;2023-03-04T03:45:30;99839.06;;;5.55;100.00
3434;BME280;1730;41.932;25.548;2023-03-04T03:47:55;99788.84;;;5.35;100.00
3434;BME280;1730;41.932;25.548;2023-03-04T03:50:21;99861.59;;;5.89;100.00
3434;BME280;1730;41.932;25.548;2023-03-04T03:52:47;99797.22;;;5.54;100.00
3434;BME280;1730;41.932;25.548;2023-03-04T03:55:12;99868.38;;;6.06;100.00
3434;BME280;1730;41.932;25.548;2023-03-04T03:57:38;99862.47;;;6.13;100.00
3434;BME280;1730;41.932;25.548;2023-03-04T04:00:04;99857.84;;;5.79;100.00
3434;BME280;1730;41.932;25.548;2023-03-04T04:02:30;99830.09;;;5.93;100.00
3434;BME280;1730;41.932;25.548;2023-03-04T04:04:56;99752.03;;;5.38;100.00
3434;BME280;1730;41.932;25.548;2023-03-04T04:07:21;99844.34;;;5.80;100.00
3434;BME280;1730;41.932;25.548;2023-03-04T04:09:47;99850.59;;;5.68;100.00
3434;BME280;1730;41.932;25.548;2023-03-04T04:12:14;99763.44;;;5.04;100.00
3434;BME280;1730;41.932;25.548;2023-03-04T04:14:41;99891.53;;;5.81;100.00
3434;BME280;1730;41.932;25.548;2023-03-04T04:17:07;99905.56;;;5.85;100.00
3434;BME280;1730;41.932;25.548;2023-03-04T04:19:33;99858.25;;;5.11;100.00
3434;BME280;1730;41.932;25.548;2023-03-04T04:21:59;99797.59;;;4.61;100.00
3434;BME280;1730;41.932;25.548;2023-03-04T04:24:24;99941.25;;;5.48;100.00
3434;BME280;1730;41.932;25.548;2023-03-04T04:26:50;99974.16;;;5.86;100.00
3434;BME280;1730;41.932;25.548;2023-03-04T04:29:16;99939.06;;;5.78;100.00
3434;BME280;1730;41.932;25.548;2023-03-04T04:31:42;99900.47;;;5.06;100.00
3434;BME280;1730;41.932;25.548;2023-03-04T04:34:08;99846.91;;;4.82;100.00
3434;BME280;1730;41.932;25.548;2023-03-04T04:36:34;99967.56;;;5.79;100.00
3434;BME280;1730;41.932;25.548;2023-03-04T04:38:59;99950.97;;;5.61;100.00
3434;BME280;1730;41.932;25.548;2023-03-04T04:41:27;99998.12;;;5.62;100.00
3434;BME280;1730;41.932;25.548;2023-03-04T04:43:54;99951.72;;;5.63;100.00
3434;BME280;1730;41.932;25.548;2023-03-04T04:46:20;99942.06;;;5.35;100.00
3434;BME280;1730;41.932;25.548;2023-03-04T04:48:45;99863.25;;;4.78;100.00
3434;BME280;1730;41.932;25.548;2023-03-04T04:51:12;99974.06;;;5.50;100.00
3434;BME280;1730;41.932;25.548;2023-03-04T04:53:37;99974.12;;;5.23;100.00
3434;BME280;1730;41.932;25.548;2023-03-04T04:56:17;99603.47;;;2.82;100.00
3434;BME280;1730;41.932;25.548;2023-03-04T04:58:44;99909.56;;;4.64;100.00
3434;BME280;1730;41.932;25.548;2023-03-04T05:01:10;99848.94;;;4.39;100.00
3434;BME280;1730;41.932;25.548;2023-03-04T05:03:36;100041.69;;;5.64;100.00
3434;BME280;1730;41.932;25.548;2023-03-04T05:06:04;100015.50;;;5.69;100.00
3434;BME280;1730;41.932;25.548;2023-03-04T05:08:29;100007.97;;;5.62;100.00
3434;BME280;1730;41.932;25.548;2023-03-04T05:10:55;99996.00;;;5.55;100.00
3434;BME280;1730;41.932;25.548;2023-03-04T05:13:21;99985.28;;;5.29;100.00
3434;BME280;1730;41.932;25.548;2023-03-04T05:15:49;100002.28;;;5.28;100.00
3434;BME280;1730;41.932;25.548;2023-03-04T05:18:14;100024.94;;;5.35;100.00
3434;BME280;1730;41.932;25.548;2023-03-04T05:20:40;100014.22;;;5.10;100.00
3434;BME280;1730;41.932;25.548;2023-03-04T05:23:05;100046.69;;;5.31;100.00
3434;BME280;1730;41.932;25.548;2023-03-04T05:25:31;100023.25;;;5.34;100.00
3434;BME280;1730;41.932;25.548;2023-03-04T05:27:57;100035.59;;;5.62;100.00
3434;BME280;1730;41.932;25.548;2023-03-04T05:30:22;99576.16;;;3.19;100.00
3434;BME280;1730;41.932;25.548;2023-03-04T05:32:48;99401.97;;;1.89;100.00
3434;BME280;1730;41.932;25.548;2023-03-04T05:35:13;99997.62;;;5.57;100.00
3434;BME280;1730;41.932;25.548;2023-03-04T05:37:39;99993.84;;;5.34;100.00
3434;BME280;1730;41.932;25.548;2023-03-04T05:40:06;100026.75;;;5.87;100.00
3434;BME280;1730;41.932;25.548;2023-03-04T05:42:32;99969.38;;;5.91;100.00
3434;BME280;1730;41.932;25.548;2023-03-04T05:44:57;99970.91;;;6.31;100.00
3434;BME280;1730;41.932;25.548;2023-03-04T05:47:22;99927.91;;;6.09;100.00
3434;BME280;1730;41.932;25.548;2023-03-04T05:49:48;99870.91;;;5.83;100.00
3434;BME280;1730;41.932;25.548;2023-03-04T05:52:15;99868.84;;;6.00;100.00
3434;BME280;1730;41.932;25.548;2023-03-04T05:54:40;99897.28;;;6.13;100.00
3434;BME280;1730;41.932;25.548;2023-03-04T05:57:06;99907.84;;;5.91;100.00
3434;BME280;1730;41.932;25.548;2023-03-04T05:59:31;99902.09;;;6.45;100.00
3434;BME280;1730;41.932;25.548;2023-03-04T06:01:57;99760.41;;;5.94;100.00
3434;BME280;1730;41.932;25.548;2023-03-04T06:04:22;99844.28;;;6.53;100.00
3434;BME280;1730;41.932;25.548;2023-03-04T06:06:48;99837.12;;;6.54;100.00
3434;BME280;1730;41.932;25.548;2023-03-04T06:09:13;99840.75;;;6.88;100.00
3434;BME280;1730;41.932;25.548;2023-03-04T06:11:40;99812.72;;;6.92;100.00
3434;BME280;1730;41.932;25.548;2023-03-04T06:14:07;99793.56;;;6.85;100.00
3434;BME280;1730;41.932;25.548;2023-03-04T06:16:32;99754.72;;;6.79;100.00
3434;BME280;1730;41.932;25.548;2023-03-04T06:18:58;99728.16;;;6.99;100.00
3434;BME280;1730;41.932;25.548;2023-03-04T06:21:23;99730.97;;;7.08;100.00
3434;BME280;1730;41.932;25.548;2023-03-04T06:23:49;99734.84;;;7.15;100.00
3434;BME280;1730;41.932;25.548;2023-03-04T06:26:14;99735.94;;;6.57;100.00
3434;BME280;1730;41.932;25.548;2023-03-04T06:28:43;99767.63;;;6.86;100.00
3434;BME280;1730;41.932;25.548;2023-03-04T06:31:09;99760.66;;;6.72;100.00
3434;BME280;1730;41.932;25.548;2023-03-04T06:33:35;99756.69;;;6.31;100.00
3434;BME280;1730;41.932;25.548;2023-03-04T06:36:00;99802.50;;;6.97;100.00
3434;BME280;1730;41.932;25.548;2023-03-04T06:38:26;99790.03;;;6.73;100.00
3434;BME280;1730;41.932;25.548;2023-03-04T06:40:52;99801.53;;;7.09;100.00
3434;BME280;1730;41.932;25.548;2023-03-04T06:43:18;99751.69;;;6.84;100.00
3434;BME280;1730;41.932;25.548;2023-03-04T06:45:44;99724.03;;;7.17;100.00
3434;BME280;1730;41.932;25.548;2023-03-04T06:48:10;99773.03;;;6.97;100.00
3434;BME280;1730;41.932;25.548;2023-03-04T06:50:36;99780.09;;;7.31;100.00
3434;BME280;1730;41.932;25.548;2023-03-04T06:53:01;99763.00;;;7.54;100.00
3434;BME280;1730;41.932;25.548;2023-03-04T06:55:27;99698.88;;;7.29;100.00
3434;BME280;1730;41.932;25.548;2023-03-04T06:57:52;99729.84;;;7.98;100.00
3434;BME280;1730;41.932;25.548;2023-03-04T07:00:18;99654.09;;;7.84;100.00
3434;BME280;1730;41.932;25.548;2023-03-04T07:02:44;99698.06;;;8.03;100.00
3434;BME280;1730;41.932;25.548;2023-03-04T07:05:10;99647.59;;;7.86;100.00
3434;BME280;1730;41.932;25.548;2023-03-04T07:07:37;99660.72;;;7.80;100.00
3434;BME280;1730;41.932;25.548;2023-03-04T07:10:03;99675.66;;;7.93;100.00
3434;BME280;1730;41.932;25.548;2023-03-04T07:12:29;99338.13;;;6.20;100.00
3434;BME280;1730;41.932;25.548;2023-03-04T07:14:54;99677.97;;;8.19;100.00
3434;BME280;1730;41.932;25.548;2023-03-04T07:17:21;99702.75;;;8.43;100.00
3434;BME280;1730;41.932;25.548;2023-03-04T07:19:46;99651.00;;;8.20;100.00
3434;BME280;1730;41.932;25.548;2023-03-04T07:22:12;99646.59;;;8.40;100.00
3434;BME280;1730;41.932;25.548;2023-03-04T07:24:38;99474.53;;;7.39;100.00
3434;BME280;1730;41.932;25.548;2023-03-04T07:27:03;99668.03;;;8.30;100.00
3434;BME280;1730;41.932;25.548;2023-03-04T07:29:29;99676.91;;;8.42;100.00
3434;BME280;1730;41.932;25.548;2023-03-04T07:31:54;99686.81;;;8.72;100.00
3434;BME280;1730;41.932;25.548;2023-03-04T07:34:20;99705.16;;;8.87;100.00
3434;BME280;1730;41.932;25.548;2023-03-04T07:36:48;99683.75;;;8.35;100.00
3434;BME280;1730;41.932;25.548;2023-03-04T07:39:14;99694.84;;;8.41;100.00
3434;BME280;1730;41.932;25.548;2023-03-04T07:41:40;99541.28;;;7.33;100.00
3434;BME280;1730;41.932;25.548;2023-03-04T07:44:07;99732.44;;;8.83;100.00
3434;BME280;1730;41.932;25.548;2023-03-04T07:46:32;99718.37;;;9.00;100.00
3434;BME280;1730;41.932;25.548;2023-03-04T07:48:58;99696.81;;;9.30;100.00
3434;BME280;1730;41.932;25.548;2023-03-04T07:51:26;99668.75;;;9.23;100.00
3434;BME280;1730;41.932;25.548;2023-03-04T07:53:54;99629.66;;;9.10;100.00
3434;BME280;1730;41.932;25.548;2023-03-04T07:56:23;99639.12;;;9.14;100.00
3434;BME280;1730;41.932;25.548;2023-03-04T07:58:50;99696.22;;;9.17;100.00
3434;BME280;1730;41.932;25.548;2023-03-04T08:01:26;99668.66;;;9.44;100.00
3434;BME280;1730;41.932;25.548;2023-03-04T08:03:52;99651.88;;;9.90;100.00
3434;BME280;1730;41.932;25.548;2023-03-04T08:06:20;99633.44;;;9.76;100.00
3434;BME280;1730;41.932;25.548;2023-03-04T08:08:46;99619.13;;;9.75;100.00
3434;BME280;1730;41.932;25.548;2023-03-04T08:11:19;99613.16;;;9.52;100.00
3434;BME280;1730;41.932;25.548;2023-03-04T08:13:48;99623.16;;;10.56;100.00
3434;BME280;1730;41.932;25.548;2023-03-04T08:16:17;99568.28;;;10.75;100.00
3434;BME280;1730;41.932;25.548;2023-03-04T08:18:45;99539.75;;;10.72;100.00
3434;BME280;1730;41.932;25.548;2023-03-04T08:21:13;99526.34;;;11.61;100.00
3434;BME280;1730;41.932;25.548;2023-03-04T08:23:39;99489.87;;;12.00;100.00
3434;BME280;1730;41.932;25.548;2023-03-04T08:26:13;99461.38;;;11.80;100.00
3434;BME280;1730;41.932;25.548;2023-03-04T08:28:40;99442.06;;;12.01;100.00
3434;BME280;1730;41.932;25.548;2023-03-04T08:31:06;99434.69;;;12.45;100.00
3434;BME280;1730;41.932;25.548;2023-03-04T08:33:32;99412.66;;;12.90;100.00
3434;BME280;1730;41.932;25.548;2023-03-04T08:35:58;99391.31;;;12.95;100.00
3434;BME280;1730;41.932;25.548;2023-03-04T08:38:24;99380.19;;;13.22;100.00
3434;BME280;1730;41.932;25.548;2023-03-04T08:40:54;99347.66;;;12.65;100.00
3434;BME280;1730;41.932;25.548;2023-03-04T08:43:26;99351.41;;;13.05;100.00
3434;BME280;1730;41.932;25.548;2023-03-04T08:45:53;99191.94;;;12.06;100.00
3434;BME280;1730;41.932;25.548;2023-03-04T08:48:22;99346.34;;;13.34;100.00
3434;BME280;1730;41.932;25.548;2023-03-04T08:50:49;99311.97;;;13.35;100.00
3434;BME280;1730;41.932;25.548;2023-03-04T08:53:15;99016.59;;;11.39;100.00
3434;BME280;1730;41.932;25.548;2023-03-04T08:55:43;99317.97;;;14.16;100.00
3434;BME280;1730;41.932;25.548;2023-03-04T08:58:10;98831.16;;;11.39;100.00
3434;BME280;1730;41.932;25.548;2023-03-04T09:00:38;99283.31;;;14.57;100.00
3434;BME280;1730;41.932;25.548;2023-03-04T09:03:04;99168.13;;;13.91;100.00
3434;BME280;1730;41.932;25.548;2023-03-04T09:05:31;99239.75;;;15.11;100.00
3434;BME280;1730;41.932;25.548;2023-03-04T09:07:57;98721.97;;;10.87;100.00
3434;BME280;1730;41.932;25.548;2023-03-04T09:10:24;99221.66;;;13.97;100.00
3434;BME280;1730;41.932;25.548;2023-03-04T09:12:50;99269.19;;;13.77;100.00
3434;BME280;1730;41.932;25.548;2023-03-04T09:15:21;99256.25;;;15.09;100.00
3434;BME280;1730;41.932;25.548;2023-03-04T09:17:47;98566.88;;;10.11;100.00
3434;BME280;1730;41.932;25.548;2023-03-04T09:20:13;98847.63;;;11.68;100.00
3434;BME280;1730;41.932;25.548;2023-03-04T09:22:40;99247.59;;;14.23;100.00
3434;BME280;1730;41.932;25.548;2023-03-04T09:25:07;99200.56;;;14.38;100.00
3434;BME280;1730;41.932;25.548;2023-03-04T09:27:35;98418.22;;;9.36;100.00
3434;BME280;1730;41.932;25.548;2023-03-04T09:30:00;98685.84;;;11.12;100.00
3434;BME280;1730;41.932;25.548;2023-03-04T09:32:26;99223.66;;;13.65;100.00
3434;BME280;1730;41.932;25.548;2023-03-04T09:34:53;98619.19;;;10.73;100.00
3434;BME280;1730;41.932;25.548;2023-03-04T09:37:20;99027.00;;;13.47;100.00
3434;BME280;1730;41.932;25.548;2023-03-04T09:39:48;99195.19;;;15.20;100.00
3434;BME280;1730;41.932;25.548;2023-03-04T09:42:27;98745.28;;;12.43;100.00
3434;BME280;1730;41.932;25.548;2023-03-04T09:44:56;99184.31;;;15.49;100.00
3434;BME280;1730;41.932;25.548;2023-03-04T09:47:23;98469.56;;;10.22;100.00
3434;BME280;1730;41.932;25.548;2023-03-04T09:49:56;99134.09;;;14.72;100.00
3434;BME280;1730;41.932;25.548;2023-03-04T09:52:43;98702.28;;;12.11;100.00
3434;BME280;1730;41.932;25.548;2023-03-04T09:55:42;99198.81;;;14.83;100.00
3434;BME280;1730;41.932;25.548;2023-03-04T10:00:57;98777.38;;;11.29;100.00
3434;BME280;1730;41.932;25.548;2023-03-04T10:03:50;98449.94;;;9.89;100.00
3434;BME280;1730;41.932;25.548;2023-03-04T10:06:19;99127.25;;;14.01;100.00
3434;BME280;1730;41.932;25.548;2023-03-04T10:11:42;99220.25;;;14.55;100.00
3434;BME280;1730;41.932;25.548;2023-03-04T10:14:29;99200.94;;;14.73;100.00
3434;BME280;1730;41.932;25.548;2023-03-04T10:17:14;99126.72;;;15.39;100.00
3434;BME280;1730;41.932;25.548;2023-03-04T10:19:56;99227.69;;;15.87;100.00
3434;BME280;1730;41.932;25.548;2023-03-04T10:22:31;99132.78;;;15.41;100.00
3434;BME280;1730;41.932;25.548;2023-03-04T10:25:26;98759.81;;;12.42;100.00
3434;BME280;1730;41.932;25.548;2023-03-04T10:27:58;99133.00;;;14.81;100.00
3434;BME280;1730;41.932;25.548;2023-03-04T10:30:47;99160.78;;;15.27;100.00
3434;BME280;1730;41.932;25.548;2023-03-04T10:33:17;99123.19;;;15.09;100.00
3434;BME280;1730;41.932;25.548;2023-03-04T10:35:47;99125.75;;;15.32;100.00
3434;BME280;1730;41.932;25.548;2023-03-04T10:38:19;99113.59;;;15.28;100.00
3434;BME280;1730;41.932;25.548;2023-03-04T10:40:46;98765.34;;;13.09;100.00
3434;BME280;1730;41.932;25.548;2023-03-04T10:43:20;99111.47;;;14.94;100.00
3434;BME280;1730;41.932;25.548;2023-03-04T10:45:46;99084.41;;;14.57;100.00
3434;BME280;1730;41.932;25.548;2023-03-04T10:48:19;99103.13;;;14.66;100.00
3434;BME280;1730;41.932;25.548;2023-03-04T10:50:45;98375.94;;;10.24;100.00
3434;BME280;1730;41.932;25.548;2023-03-04T10:53:24;98633.78;;;11.96;100.00
3434;BME280;1730;41.932;25.548;2023-03-04T10:55:53;98351.88;;;10.23;100.00
3434;BME280;1730;41.932;25.548;2023-03-04T10:58:19;98581.66;;;11.64;100.00
3434;BME280;1730;41.932;25.548;2023-03-04T11:00:59;98536.09;;;11.39;100.00
3434;BME280;1730;41.932;25.548;2023-03-04T11:03:36;99092.63;;;14.63;100.00
3434;BME280;1730;41.932;25.548;2023-03-04T11:06:17;99093.59;;;14.33;100.00
3434;BME280;1730;41.932;25.548;2023-03-04T11:08:44;99043.84;;;14.26;100.00
3434;BME280;1730;41.932;25.548;2023-03-04T11:11:24;99045.41;;;14.35;100.00
3434;BME280;1730;41.932;25.548;2023-03-04T11:13:57;99094.44;;;14.85;100.00
3434;BME280;1730;41.932;25.548;2023-03-04T11:16:26;98468.47;;;10.87;100.00
3434;BME280;1730;41.932;25.548;2023-03-04T11:18:55;98512.63;;;10.85;100.00
3434;BME280;1730;41.932;25.548;2023-03-04T11:21:26;99041.09;;;13.88;100.00
3434;BME280;1730;41.932;25.548;2023-03-04T11:23:59;99083.38;;;14.35;100.00
3434;BME280;1730;41.932;25.548;2023-03-04T11:29:18;99068.41;;;14.47;100.00
3434;BME280;1730;41.932;25.548;2023-03-04T11:32:13;98468.31;;;10.80;100.00
3434;BME280;1730;41.932;25.548;2023-03-04T11:35:00;98283.69;;;9.83;100.00
3434;BME280;1730;41.932;25.548;2023-03-04T11:37:43;99085.91;;;14.88;100.00
3434;BME280;1730;41.932;25.548;2023-03-04T11:40:22;98536.50;;;11.50;100.00
3434;BME280;1730;41.932;25.548;2023-03-04T11:42:57;98729.31;;;12.94;100.00
3434;BME280;1730;41.932;25.548;2023-03-04T11:45:59;98622.25;;;12.91;100.00
3434;BME280;1730;41.932;25.548;2023-03-04T11:56:59;99073.41;;;14.35;100.00
3434;BME280;1730;41.932;25.548;2023-03-04T12:02:15;98923.38;;;14.50;100.00
3434;BME280;1730;41.932;25.548;2023-03-04T12:07:58;99005.28;;;15.40;100.00
3434;BME280;1730;41.932;25.548;2023-03-04T12:27:19;98995.84;;;16.27;100.00
3434;BME280;1730;41.932;25.548;2023-03-04T12:30:00;98984.72;;;16.22;100.00
3434;BME280;1730;41.932;25.548;2023-03-04T12:35:36;98995.34;;;16.45;100.00
3434;BME280;1730;41.932;25.548;2023-03-04T12:40:59;98983.59;;;16.10;100.00
3434;BME280;1730;41.932;25.548;2023-03-04T12:43:33;98976.69;;;15.44;100.00
3434;BME280;1730;41.932;25.548;2023-03-04T12:46:14;98977.28;;;15.82;100.00
3434;BME280;1730;41.932;25.548;2023-03-04T12:49:01;98968.12;;;15.47;100.00
3434;BME280;1730;41.932;25.548;2023-03-04T12:54:30;98984.66;;;15.88;100.00
3434;BME280;1730;41.932;25.548;2023-03-04T12:57:00;98967.91;;;15.63;100.00
3434;BME280;1730;41.932;25.548;2023-03-04T12:59:35;98961.00;;;15.46;100.00
3434;BME280;1730;41.932;25.548;2023-03-04T13:04:59;98974.84;;;15.29;100.00
3434;BME280;1730;41.932;25.548;2023-03-04T13:07:42;98959.59;;;15.50;100.00
3434;BME280;1730;41.932;25.548;2023-03-04T13:10:16;98953.12;;;15.72;100.00
3434;BME280;1730;41.932;25.548;2023-03-04T13:15:27;98939.88;;;15.62;100.00
3434;BME280;1730;41.932;25.548;2023-03-04T13:20:37;98935.59;;;15.74;100.00
3434;BME280;1730;41.932;25.548;2023-03-04T13:25:48;98934.97;;;16.00;100.00
3434;BME280;1730;41.932;25.548;2023-03-04T13:28:36;98933.25;;;15.71;100.00
3434;BME280;1730;41.932;25.548;2023-03-04T13:31:11;98921.84;;;15.55;100.00
3434;BME280;1730;41.932;25.548;2023-03-04T13:33:44;98916.31;;;15.48;100.00
3434;BME280;1730;41.932;25.548;2023-03-04T13:36:29;98924.50;;;15.76;100.00
3434;BME280;1730;41.932;25.548;2023-03-04T13:39:03;98910.03;;;15.69;100.00
3434;BME280;1730;41.932;25.548;2023-03-04T13:41:48;98905.00;;;15.66;100.00
3434;BME280;1730;41.932;25.548;2023-03-04T13:44:34;98804.97;;;14.84;100.00
3434;BME280;1730;41.932;25.548;2023-03-04T13:47:15;98904.16;;;15.23;100.00
3434;BME280;1730;41.932;25.548;2023-03-04T13:49:41;98799.38;;;14.65;100.00
3434;BME280;1730;41.932;25.548;2023-03-04T13:52:46;98910.03;;;15.48;100.00
3434;BME280;1730;41.932;25.548;2023-03-04T13:55:34;98910.66;;;15.50;100.00
3434;BME280;1730;41.932;25.548;2023-03-04T13:58:19;98873.44;;;15.44;100.00
3434;BME280;1730;41.932;25.548;2023-03-04T14:00:50;98898.66;;;15.59;100.00
3434;BME280;1730;41.932;25.548;2023-03-04T14:03:24;98852.28;;;14.97;100.00
3434;BME280;1730;41.932;25.548;2023-03-04T14:06:10;98849.06;;;15.29;100.00
3434;BME280;1730;41.932;25.548;2023-03-04T14:08:36;98886.31;;;15.56;100.00
3434;BME280;1730;41.932;25.548;2023-03-04T14:11:03;98867.59;;;15.47;100.00
3434;BME280;1730;41.932;25.548;2023-03-04T14:13:29;98876.31;;;15.63;100.00
3434;BME280;1730;41.932;25.548;2023-03-04T14:15:56;98879.00;;;15.36;100.00